createdAt,value
2023-04-09T00:01:14.551Z,18.33
2023-04-09T00:03:43.228Z,18.40
2023-04-09T00:06:11.618Z,18.63
2023-04-09T00:08:38.109Z,19.38
2023-04-09T00:11:04.966Z,18.08
2023-04-09T00:13:39.013Z,18.73
2023-04-09T00:16:06.893Z,19.92
2023-04-09T00:18:33.709Z,18.63
2023-04-09T00:21:00.631Z,18.50
2023-04-09T00:23:27.259Z,16.48
2023-04-09T00:25:55.201Z,18.15
2023-04-09T00:28:21.868Z,17.38
2023-04-09T00:30:48.381Z,17.77
2023-04-09T00:33:18.048Z,17.13
2023-04-09T00:35:44.749Z,17.40
2023-04-09T00:38:12.308Z,17.98
2023-04-09T00:40:38.881Z,17.42
2023-04-09T00:43:05.658Z,17.85
2023-04-09T00:45:32.686Z,19.33
2023-04-09T00:47:59.562Z,18.17
2023-04-09T00:50:26.502Z,18.40
2023-04-09T00:52:53.339Z,17.90
2023-04-09T00:55:21.378Z,18.33
2023-04-09T00:57:47.925Z,17.95
2023-04-09T01:00:16.162Z,17.63
2023-04-09T01:02:43.967Z,17.33
2023-04-09T01:05:14.190Z,17.50
2023-04-09T01:08:05.769Z,16.00
2023-04-09T01:10:51.178Z,15.82
2023-04-09T01:13:33.283Z,15.60
2023-04-09T01:16:03.169Z,16.63
2023-04-09T01:18:41.822Z,16.30
2023-04-09T01:21:19.199Z,16.17
2023-04-09T01:24:17.063Z,16.33
2023-04-09T01:26:51.352Z,15.88
2023-04-09T01:29:20.456Z,16.25
2023-04-09T01:31:52.100Z,16.05
2023-04-09T01:34:20.519Z,14.98
2023-04-09T01:36:52.176Z,14.13
2023-04-09T01:39:19.341Z,14.65
2023-04-09T01:41:46.866Z,15.23
2023-04-09T01:44:16.697Z,15.63
2023-04-09T01:46:43.685Z,15.20
2023-04-09T01:49:11.259Z,15.70
2023-04-09T01:51:38.902Z,15.52
2023-04-09T01:54:05.725Z,15.15
2023-04-09T01:56:45.706Z,16.10
2023-04-09T01:59:12.690Z,14.35
2023-04-09T02:01:47.695Z,15.48
2023-04-09T02:04:29.586Z,16.15
2023-04-09T02:07:07.098Z,16.00
2023-04-09T02:09:37.065Z,15.13
2023-04-09T02:12:06.836Z,15.15
2023-04-09T02:14:34.580Z,16.38
2023-04-09T02:17:02.246Z,15.35
2023-04-09T02:19:39.637Z,16.75
2023-04-09T02:22:06.334Z,16.52
2023-04-09T02:24:32.802Z,16.70
2023-04-09T02:26:59.463Z,16.27
2023-04-09T02:29:25.919Z,15.48
2023-04-09T02:31:53.814Z,15.77
2023-04-09T02:34:20.373Z,15.75
2023-04-09T02:36:48.315Z,15.65
2023-04-09T02:39:15.424Z,16.80
2023-04-09T02:41:42.297Z,15.60
2023-04-09T02:44:08.967Z,17.00
2023-04-09T02:46:35.597Z,18.40
2023-04-09T02:49:02.584Z,17.13
2023-04-09T02:51:29.203Z,17.30
2023-04-09T02:53:55.868Z,16.58
2023-04-09T02:56:22.741Z,17.73
2023-04-09T02:58:53.995Z,17.02
2023-04-09T03:01:23.231Z,17.42
2023-04-09T03:03:50.434Z,17.45
2023-04-09T03:06:20.686Z,17.05
2023-04-09T03:08:47.316Z,17.45
2023-04-09T03:11:14.219Z,18.38
2023-04-09T03:13:40.687Z,17.70
2023-04-09T03:16:07.824Z,16.90
2023-04-09T03:18:34.363Z,16.35
2023-04-09T03:21:05.476Z,17.85
2023-04-09T03:23:35.285Z,15.88
2023-04-09T03:26:06.553Z,16.60
2023-04-09T03:28:49.437Z,16.90
2023-04-09T03:31:17.071Z,16.67
2023-04-09T03:33:44.944Z,16.73
2023-04-09T03:36:12.002Z,17.02
2023-04-09T03:38:52.599Z,16.13
2023-04-09T03:41:41.310Z,16.15
2023-04-09T03:44:11.666Z,16.48
2023-04-09T03:46:55.274Z,14.77
2023-04-09T03:49:22.654Z,15.77
2023-04-09T03:51:49.983Z,15.43
2023-04-09T03:54:16.687Z,16.02
2023-04-09T03:56:44.481Z,15.32
2023-04-09T03:59:13.511Z,14.93
2023-04-09T04:01:43.998Z,15.38
2023-04-09T04:04:10.787Z,14.55
2023-04-09T04:06:47.753Z,13.80
2023-04-09T04:09:32.805Z,13.88
2023-04-09T04:12:11.088Z,13.55
2023-04-09T04:14:51.085Z,12.50
2023-04-09T04:17:27.010Z,13.10
2023-04-09T04:19:54.599Z,12.57
2023-04-09T04:22:24.908Z,13.45
2023-04-09T04:24:55.025Z,13.65
2023-04-09T04:27:22.685Z,13.10
2023-04-09T04:29:49.913Z,13.55
2023-04-09T04:32:36.445Z,12.98
2023-04-09T04:35:07.621Z,13.68
2023-04-09T04:37:34.704Z,13.70
2023-04-09T04:40:02.796Z,14.10
2023-04-09T04:42:31.434Z,14.20
2023-04-09T04:45:01.395Z,13.85
2023-04-09T04:47:42.757Z,14.60
2023-04-09T04:50:09.815Z,14.13
2023-04-09T04:52:50.342Z,14.40
2023-04-09T04:55:18.347Z,15.30
2023-04-09T04:57:44.924Z,14.82
2023-04-09T05:00:14.530Z,14.18
2023-04-09T05:02:43.112Z,14.27
2023-04-09T05:05:18.138Z,13.73
2023-04-09T05:07:50.449Z,14.57
2023-04-09T05:10:16.996Z,14.23
2023-04-09T05:12:45.103Z,14.18
2023-04-09T05:15:18.415Z,15.30
2023-04-09T05:17:45.807Z,14.00
2023-04-09T05:20:14.337Z,15.65
2023-04-09T05:22:54.455Z,13.50
2023-04-09T05:25:27.793Z,13.45
2023-04-09T05:27:54.398Z,13.70
2023-04-09T05:30:21.602Z,14.32
2023-04-09T05:32:48.304Z,14.23
2023-04-09T05:35:16.099Z,13.75
2023-04-09T05:37:45.474Z,14.73
2023-04-09T05:40:12.677Z,14.35
2023-04-09T05:42:41.643Z,14.88
2023-04-09T05:45:17.603Z,15.80
2023-04-09T05:47:50.919Z,16.52
2023-04-09T05:50:20.539Z,15.48
2023-04-09T05:52:50.072Z,15.00
2023-04-09T05:55:16.964Z,16.27
2023-04-09T05:57:59.299Z,15.32
2023-04-09T06:00:26.540Z,15.35
2023-04-09T06:02:53.103Z,16.00
2023-04-09T06:05:19.649Z,14.35
2023-04-09T06:07:47.549Z,15.32
2023-04-09T06:10:14.373Z,14.18
2023-04-09T06:12:41.255Z,15.00
2023-04-09T06:15:09.468Z,14.63
2023-04-09T06:17:36.106Z,14.98
2023-04-09T06:20:02.792Z,14.25
2023-04-09T06:22:29.308Z,15.05
2023-04-09T06:24:55.812Z,16.10
2023-04-09T06:27:22.991Z,15.63
2023-04-09T06:29:49.458Z,16.08
2023-04-09T06:32:16.732Z,16.17
2023-04-09T06:34:43.345Z,15.77
2023-04-09T06:37:09.935Z,15.25
2023-04-09T06:39:37.412Z,16.10
2023-04-09T06:42:05.201Z,15.77
2023-04-09T06:44:38.656Z,15.20
2023-04-09T06:47:05.442Z,15.75
2023-04-09T06:49:31.908Z,16.92
2023-04-09T06:51:58.405Z,15.98
2023-04-09T06:54:25.024Z,16.27
2023-04-09T06:56:51.894Z,16.30
2023-04-09T06:59:18.673Z,15.55
2023-04-09T07:01:45.566Z,16.40
2023-04-09T07:04:12.191Z,16.45
2023-04-09T07:06:40.696Z,16.02
2023-04-09T07:09:07.523Z,15.00
2023-04-09T07:11:34.039Z,16.30
2023-04-09T07:14:00.890Z,16.15
2023-04-09T07:16:27.483Z,15.75
2023-04-09T07:18:54.074Z,15.55
2023-04-09T07:21:20.660Z,15.55
2023-04-09T07:23:48.058Z,15.30
2023-04-09T07:26:15.848Z,16.80
2023-04-09T07:28:42.466Z,15.55
2023-04-09T07:31:09.785Z,15.73
2023-04-09T07:33:36.278Z,16.63
2023-04-09T07:36:02.939Z,17.05
2023-04-09T07:38:30.362Z,15.60
2023-04-09T07:40:57.605Z,16.55
2023-04-09T07:43:24.123Z,17.08
2023-04-09T07:45:51.645Z,16.58
2023-04-09T07:48:18.189Z,16.40
2023-04-09T07:50:48.264Z,16.23
2023-04-09T07:53:14.907Z,16.60
2023-04-09T07:55:41.532Z,17.95
2023-04-09T07:58:08.064Z,17.52
2023-04-09T08:00:34.559Z,16.50
2023-04-09T08:03:01.840Z,17.00
2023-04-09T08:05:28.853Z,16.73
2023-04-09T08:07:55.439Z,16.80
2023-04-09T08:10:21.955Z,16.70
2023-04-09T08:12:48.990Z,16.27
2023-04-09T08:15:15.499Z,15.93
2023-04-09T08:17:42.132Z,17.20
2023-04-09T08:20:09.085Z,16.65
2023-04-09T08:22:35.657Z,17.30
2023-04-09T08:25:02.932Z,16.63
2023-04-09T08:27:29.597Z,17.15
2023-04-09T08:29:56.202Z,18.27
2023-04-09T08:32:23.800Z,17.40
2023-04-09T08:34:50.360Z,17.58
2023-04-09T08:37:17.540Z,16.65
2023-04-09T08:39:44.191Z,16.63
2023-04-09T08:42:12.599Z,16.40
2023-04-09T08:44:39.197Z,17.00
2023-04-09T08:47:11.382Z,16.75
2023-04-09T08:49:41.594Z,17.42
2023-04-09T08:52:09.818Z,16.77
2023-04-09T08:54:37.177Z,16.85
2023-04-09T08:57:05.846Z,16.35
2023-04-09T08:59:36.801Z,16.13
2023-04-09T09:02:07.832Z,15.68
2023-04-09T09:04:46.347Z,15.57
2023-04-09T09:07:13.409Z,15.70
2023-04-09T09:10:00.237Z,15.20
2023-04-09T09:12:40.470Z,16.60
2023-04-09T09:15:28.178Z,15.52
2023-04-09T09:17:59.605Z,16.40
2023-04-09T09:20:27.145Z,15.45
2023-04-09T09:22:55.902Z,17.15
2023-04-09T09:25:26.700Z,16.10
2023-04-09T09:27:54.564Z,16.45
2023-04-09T09:30:26.603Z,16.70
2023-04-09T09:33:05.623Z,15.50
2023-04-09T09:35:48.316Z,16.10
2023-04-09T09:38:16.244Z,15.98
2023-04-09T09:40:43.692Z,16.45
2023-04-09T09:43:10.979Z,15.98
2023-04-09T09:45:38.890Z,15.98
2023-04-09T09:48:08.327Z,15.70
2023-04-09T09:50:36.727Z,15.65
2023-04-09T09:53:07.633Z,15.43
2023-04-09T09:55:38.982Z,15.80
2023-04-09T09:58:17.295Z,14.88
2023-04-09T10:00:46.523Z,14.68
2023-04-09T10:03:25.231Z,14.90
2023-04-09T10:05:53.531Z,14.05
2023-04-09T10:08:21.730Z,13.50
2023-04-09T10:10:49.025Z,14.48
2023-04-09T10:13:27.126Z,14.40
2023-04-09T10:15:53.990Z,14.80
2023-04-09T10:18:21.329Z,14.88
2023-04-09T10:21:00.283Z,13.95
2023-04-09T10:23:41.560Z,13.50
2023-04-09T10:26:08.580Z,14.20
2023-04-09T10:28:37.509Z,14.23
2023-04-09T10:31:08.616Z,13.98
2023-04-09T10:33:37.344Z,14.02
2023-04-09T10:36:06.383Z,14.80
2023-04-09T10:38:38.364Z,14.00
2023-04-09T10:41:27.602Z,14.80
2023-04-09T10:43:57.056Z,14.45
2023-04-09T10:46:36.892Z,14.18
2023-04-09T10:49:10.452Z,15.35
2023-04-09T10:51:40.601Z,14.32
2023-04-09T10:54:32.753Z,14.05
2023-04-09T10:57:08.184Z,15.43
2023-04-09T10:59:41.196Z,14.32
2023-04-09T11:02:10.381Z,14.55
2023-04-09T11:04:46.562Z,14.38
2023-04-09T11:07:17.798Z,15.75
2023-04-09T11:09:44.362Z,13.95
2023-04-09T11:12:14.017Z,15.63
2023-04-09T11:14:40.568Z,15.50
2023-04-09T11:17:07.169Z,14.90
2023-04-09T11:19:34.330Z,15.10
2023-04-09T11:22:01.016Z,15.52
2023-04-09T11:24:39.638Z,15.48
2023-04-09T11:27:06.109Z,15.65
2023-04-09T11:29:35.065Z,15.18
2023-04-09T11:32:02.488Z,14.80
2023-04-09T11:34:29.081Z,16.23
2023-04-09T11:36:56.887Z,15.80
2023-04-09T11:39:23.460Z,14.52
2023-04-09T11:41:50.101Z,14.77
2023-04-09T11:44:16.625Z,15.00
2023-04-09T11:46:43.634Z,14.82
2023-04-09T11:49:10.311Z,14.52
2023-04-09T11:51:36.901Z,14.18
2023-04-09T11:54:04.873Z,13.43
2023-04-09T11:56:32.470Z,13.57
2023-04-09T11:58:59.500Z,13.07
2023-04-09T12:01:32.422Z,14.57
2023-04-09T12:04:00.235Z,13.73
2023-04-09T12:06:30.040Z,14.60
2023-04-09T12:08:58.064Z,14.23
2023-04-09T12:11:29.966Z,14.35
2023-04-09T12:14:01.246Z,12.85
2023-04-09T12:16:32.089Z,13.40
2023-04-09T12:19:09.145Z,13.77
2023-04-09T12:22:05.261Z,13.88
2023-04-09T12:24:32.011Z,13.98
2023-04-09T12:26:58.706Z,14.13
2023-04-09T12:29:26.704Z,13.95
2023-04-09T12:31:54.036Z,12.52
2023-04-09T12:34:20.720Z,12.82
2023-04-09T12:36:47.297Z,13.20
2023-04-09T12:39:14.724Z,12.68
2023-04-09T12:41:43.218Z,14.00
2023-04-09T12:44:09.961Z,14.43
2023-04-09T12:46:37.531Z,14.40
2023-04-09T12:49:04.272Z,15.23
2023-04-09T12:51:30.832Z,13.32
2023-04-09T12:53:57.370Z,13.45
2023-04-09T12:56:24.791Z,14.65
2023-04-09T12:58:52.059Z,14.30
2023-04-09T13:01:18.898Z,13.70
2023-04-09T13:03:45.708Z,13.65
2023-04-09T13:06:12.311Z,12.98
2023-04-09T13:08:38.840Z,13.35
2023-04-09T13:11:05.889Z,14.93
2023-04-09T13:13:32.399Z,14.70
2023-04-09T13:15:59.019Z,14.00
2023-04-09T13:18:25.630Z,13.70
2023-04-09T13:20:52.133Z,13.35
2023-04-09T13:23:18.605Z,14.18
2023-04-09T13:25:45.437Z,14.63
2023-04-09T13:28:14.249Z,13.65
2023-04-09T13:30:40.773Z,15.48
2023-04-09T13:33:07.325Z,14.52
2023-04-09T13:35:34.774Z,13.68
2023-04-09T13:38:01.328Z,14.60
2023-04-09T13:40:27.912Z,14.52
2023-04-09T13:42:54.392Z,13.38
2023-04-09T13:45:23.700Z,13.98
2023-04-09T13:47:50.215Z,13.73
2023-04-09T13:50:17.092Z,12.80
2023-04-09T13:52:43.509Z,12.95
2023-04-09T13:55:10.408Z,13.13
2023-04-09T13:57:37.270Z,12.20
2023-04-09T14:00:04.634Z,13.55
2023-04-09T14:02:32.097Z,12.50
2023-04-09T14:04:59.111Z,12.43
2023-04-09T14:07:26.308Z,12.90
2023-04-09T14:09:52.812Z,12.85
2023-04-09T14:12:19.282Z,12.02
2023-04-09T14:14:45.778Z,13.05
2023-04-09T14:17:12.464Z,12.77
2023-04-09T14:19:39.734Z,12.88
2023-04-09T14:22:07.723Z,12.50
2023-04-09T14:24:40.296Z,12.77
2023-04-09T14:27:10.340Z,13.57
2023-04-09T14:29:36.839Z,13.82
2023-04-09T14:32:03.633Z,13.57
2023-04-09T14:34:31.416Z,12.82
2023-04-09T14:36:58.032Z,12.43
2023-04-09T14:39:24.633Z,12.00
2023-04-09T14:41:51.780Z,13.00
2023-04-09T14:44:18.274Z,12.23
2023-04-09T14:46:45.502Z,12.40
2023-04-09T14:49:13.563Z,13.13
2023-04-09T14:51:40.129Z,11.55
2023-04-09T14:54:06.740Z,11.43
2023-04-09T14:56:35.390Z,10.73
2023-04-09T14:59:01.881Z,10.63
2023-04-09T15:01:28.469Z,12.18
2023-04-09T15:03:55.648Z,13.15
2023-04-09T15:06:22.552Z,12.85
2023-04-09T15:08:49.008Z,13.40
2023-04-09T15:11:16.615Z,13.52
2023-04-09T15:13:43.589Z,12.80
2023-04-09T15:16:10.507Z,11.65
2023-04-09T15:18:40.143Z,11.90
2023-04-09T15:21:07.314Z,11.88
2023-04-09T15:23:35.457Z,11.90
2023-04-09T15:26:02.208Z,11.38
2023-04-09T15:28:30.303Z,11.27
2023-04-09T15:30:57.954Z,11.52
2023-04-09T15:33:24.537Z,11.10
2023-04-09T15:35:51.166Z,10.95
2023-04-09T15:38:17.801Z,11.05
2023-04-09T15:40:46.138Z,11.00
2023-04-09T15:43:13.974Z,12.30
2023-04-09T15:45:41.427Z,10.95
2023-04-09T15:48:09.470Z,10.48
2023-04-09T15:50:36.198Z,12.25
2023-04-09T15:53:02.946Z,11.32
2023-04-09T15:55:29.547Z,10.95
2023-04-09T15:57:56.036Z,11.75
2023-04-09T16:00:26.233Z,12.05
2023-04-09T16:02:53.686Z,38.45
2023-04-09T16:05:20.482Z,11.98
2023-04-09T16:07:51.021Z,10.80
2023-04-09T16:10:18.840Z,11.15
2023-04-09T16:12:45.488Z,10.80
2023-04-09T16:15:12.071Z,10.90
2023-04-09T16:17:40.873Z,10.75
2023-04-09T16:20:08.513Z,10.43
2023-04-09T16:22:35.460Z,10.70
2023-04-09T16:25:02.033Z,10.73
2023-04-09T16:27:28.997Z,10.40
2023-04-09T16:29:56.076Z,10.65
2023-04-09T16:32:22.886Z,9.90
2023-04-09T16:34:49.431Z,11.25
2023-04-09T16:37:16.093Z,10.68
2023-04-09T16:39:42.636Z,10.57
2023-04-09T16:42:11.011Z,10.00
2023-04-09T16:44:38.055Z,10.75
2023-04-09T16:47:05.637Z,10.25
2023-04-09T16:49:32.185Z,10.63
2023-04-09T16:51:58.787Z,10.80
2023-04-09T16:54:25.885Z,11.02
2023-04-09T16:56:53.063Z,11.85
2023-04-09T16:59:21.031Z,10.98
2023-04-09T17:01:51.361Z,11.48
2023-04-09T17:04:18.028Z,11.95
2023-04-09T17:06:44.798Z,12.93
2023-04-09T17:09:11.655Z,11.85
2023-04-09T17:11:38.305Z,12.52
2023-04-09T17:14:05.751Z,12.25
2023-04-09T17:16:33.178Z,12.55
2023-04-09T17:18:59.807Z,11.88
2023-04-09T17:21:26.534Z,12.15
2023-04-09T17:23:53.077Z,12.38
2023-04-09T17:26:20.716Z,12.85
2023-04-09T17:28:47.630Z,12.13
2023-04-09T17:31:15.951Z,12.60
2023-04-09T17:33:47.002Z,12.48
2023-04-09T17:36:14.148Z,13.07
2023-04-09T17:38:40.617Z,12.63
2023-04-09T17:41:07.901Z,12.57
2023-04-09T17:43:34.557Z,13.02
2023-04-09T17:46:01.567Z,13.15
2023-04-09T17:48:30.063Z,13.48
2023-04-09T17:50:58.057Z,12.18
2023-04-09T17:53:25.038Z,12.98
2023-04-09T17:55:52.054Z,11.95
2023-04-09T17:58:19.141Z,12.32
2023-04-09T18:00:45.680Z,12.38
2023-04-09T18:03:12.853Z,12.05
2023-04-09T18:05:39.809Z,11.70
2023-04-09T18:08:07.336Z,11.55
2023-04-09T18:10:34.307Z,11.45
2023-04-09T18:13:00.797Z,11.45
2023-04-09T18:15:28.232Z,11.77
2023-04-09T18:17:54.927Z,11.88
2023-04-09T18:20:21.458Z,11.70
2023-04-09T18:22:48.124Z,11.70
2023-04-09T18:25:14.639Z,10.98
2023-04-09T18:27:41.156Z,11.20
2023-04-09T18:30:08.186Z,11.80
2023-04-09T18:32:34.842Z,12.10
2023-04-09T18:35:01.639Z,12.35
2023-04-09T18:37:28.313Z,12.00
2023-04-09T18:39:55.111Z,12.52
2023-04-09T18:42:21.798Z,12.13
2023-04-09T18:44:48.723Z,12.90
2023-04-09T18:47:15.323Z,13.45
2023-04-09T18:49:42.363Z,13.55
2023-04-09T18:52:10.342Z,15.25
2023-04-09T18:54:37.318Z,14.77
2023-04-09T18:57:04.403Z,14.40
2023-04-09T18:59:33.403Z,14.77
2023-04-09T19:02:00.563Z,14.80
2023-04-09T19:04:28.152Z,15.52
2023-04-09T19:06:54.774Z,13.48
2023-04-09T19:09:21.626Z,13.93
2023-04-09T19:11:48.663Z,15.50
2023-04-09T19:14:15.931Z,13.98
2023-04-09T19:16:44.428Z,15.43
2023-04-09T19:19:11.855Z,14.60
2023-04-09T19:21:38.396Z,16.80
2023-04-09T19:24:06.220Z,17.30
2023-04-09T19:26:33.232Z,18.83
2023-04-09T19:28:59.970Z,18.55
2023-04-09T19:31:26.576Z,19.52
2023-04-09T19:33:53.245Z,19.75
2023-04-09T19:36:19.785Z,20.02
2023-04-09T19:38:46.501Z,19.98
2023-04-09T19:41:13.052Z,20.35
2023-04-09T19:43:41.866Z,19.45
2023-04-09T19:46:08.774Z,19.67
2023-04-09T19:48:36.813Z,18.33
2023-04-09T19:51:03.702Z,17.38
2023-04-09T19:53:31.035Z,18.15
2023-04-09T19:55:57.694Z,19.60
2023-04-09T19:58:24.371Z,17.67
2023-04-09T20:00:51.434Z,17.17
2023-04-09T20:03:18.729Z,18.25
2023-04-09T20:05:45.328Z,16.75
2023-04-09T20:08:15.144Z,17.15
2023-04-09T20:10:45.037Z,17.45
2023-04-09T20:13:11.944Z,18.95
2023-04-09T20:15:38.788Z,19.33
2023-04-09T20:18:06.267Z,19.48
2023-04-09T20:20:32.956Z,19.10
2023-04-09T20:22:59.787Z,19.00
2023-04-09T20:25:33.790Z,18.00
2023-04-09T20:28:01.857Z,17.90
2023-04-09T20:30:28.399Z,18.20
2023-04-09T20:32:54.983Z,18.10
2023-04-09T20:35:21.616Z,18.08
2023-04-09T20:37:50.143Z,18.20
2023-04-09T20:40:17.365Z,18.42
2023-04-09T20:42:44.989Z,18.40
2023-04-09T20:45:11.622Z,19.40
2023-04-09T20:47:38.280Z,19.85
2023-04-09T20:50:05.365Z,18.98
2023-04-09T20:52:32.738Z,20.08
2023-04-09T20:54:59.252Z,20.63
2023-04-09T20:57:25.972Z,19.20
2023-04-09T20:59:56.014Z,20.20
2023-04-09T21:02:23.900Z,19.73
2023-04-09T21:04:50.514Z,20.52
2023-04-09T21:07:17.948Z,19.80
2023-04-09T21:09:44.532Z,20.90
2023-04-09T21:12:12.332Z,20.50
2023-04-09T21:14:39.267Z,20.83
2023-04-09T21:17:05.996Z,20.80
2023-04-09T21:19:33.125Z,22.08
2023-04-09T21:22:00.149Z,22.25
2023-04-09T21:24:27.907Z,24.13
2023-04-09T21:26:54.488Z,22.45
2023-04-09T21:29:21.412Z,23.52
2023-04-09T21:31:48.871Z,24.40
2023-04-09T21:34:16.920Z,23.27
2023-04-09T21:36:45.263Z,22.85
2023-04-09T21:39:12.527Z,22.00
2023-04-09T21:41:40.131Z,23.52
2023-04-09T21:44:09.638Z,22.55
2023-04-09T21:46:37.342Z,23.70
2023-04-09T21:49:05.489Z,23.55
2023-04-09T21:51:32.787Z,22.85
2023-04-09T21:54:06.988Z,23.60
2023-04-09T21:56:34.478Z,23.60
2023-04-09T21:59:02.622Z,22.35
2023-04-09T22:01:34.543Z,22.77
2023-04-09T22:04:02.119Z,23.40
2023-04-09T22:06:29.292Z,21.75
2023-04-09T22:08:57.749Z,22.10
2023-04-09T22:11:29.868Z,21.02
2023-04-09T22:13:58.532Z,21.13
2023-04-09T22:16:25.982Z,21.58
2023-04-09T22:18:58.015Z,20.80
2023-04-09T22:21:24.943Z,19.38
2023-04-09T22:23:51.407Z,20.52
2023-04-09T22:26:17.942Z,20.27
2023-04-09T22:28:44.516Z,20.63
2023-04-09T22:31:11.332Z,20.42
2023-04-09T22:33:38.073Z,19.38
2023-04-09T22:36:07.866Z,19.20
2023-04-09T22:38:34.858Z,18.63
2023-04-09T22:41:01.587Z,19.42
2023-04-09T22:43:28.095Z,19.38
2023-04-09T22:45:58.436Z,18.13
2023-04-09T22:48:24.952Z,18.02
2023-04-09T22:50:51.446Z,19.00
2023-04-09T22:53:19.253Z,18.10
2023-04-09T22:55:50.655Z,18.75
2023-04-09T22:58:17.621Z,18.80
2023-04-09T23:00:45.026Z,18.80
2023-04-09T23:03:12.012Z,18.13
2023-04-09T23:05:39.377Z,18.73
2023-04-09T23:08:06.996Z,18.48
2023-04-09T23:10:33.626Z,19.15
2023-04-09T23:13:02.908Z,17.92
2023-04-09T23:15:29.499Z,19.00
2023-04-09T23:17:56.237Z,19.02
2023-04-09T23:20:23.191Z,18.27
2023-04-09T23:22:52.306Z,18.58
2023-04-09T23:25:22.628Z,19.67
2023-04-09T23:27:49.176Z,18.50
2023-04-09T23:30:18.627Z,19.25
2023-04-09T23:32:45.723Z,18.92
2023-04-09T23:35:13.212Z,18.38
2023-04-09T23:37:41.252Z,18.08
2023-04-09T23:40:08.619Z,18.80
2023-04-09T23:42:35.602Z,18.25
2023-04-09T23:45:04.472Z,18.15
2023-04-09T23:47:35.635Z,17.60
2023-04-09T23:50:07.185Z,19.13
2023-04-09T23:52:36.401Z,18.95
2023-04-09T23:55:08.889Z,18.00
2023-04-09T23:57:40.028Z,18.60
